Time;durP1;ratioP1;P1;durP2;ratioP2;P2;SDS_P1;SDS_P2;PMS_P1;PMS_P2;Temp;Humidity;BMP_temperature;BMP_pressure;BME280_temperature;BME280_humidity;BME280_pressure;Samples;Min_cycle;Max_cycle;Signal;HPM_P1;HPM_P2
2022/01/02 00:00:03;;;;;;;;;;;;;;;6.75;80.26;100972.59;1688511;83;20951;-77
2022/01/02 00:02:29;;;;;;;;;;;;;;;6.87;80.07;100966.08;1680686;83;20278;-81
2022/01/02 00:05:06;;;;;;;;;;;;;;;6.96;79.52;100968.89;1678973;83;20252;-75
2022/01/02 00:07:34;;;;;;;;;;;;;;;7.00;79.37;100970.80;1693988;83;20216;-78
2022/01/02 00:10:03;;;;;;;;;;;;;;;7.01;79.30;100971.18;1695376;83;20172;-76
2022/01/02 00:12:33;;;;;;;;;;;;;;;7.14;79.52;100960.59;1691813;83;21159;-77
2022/01/02 00:14:59;;;;;;;;;;;;;;;7.15;78.62;100963.59;1693102;83;20144;-77
2022/01/02 00:17:24;;;;;;;;;;;;;;;7.17;78.72;100968.25;1673423;83;20231;-77
2022/01/02 00:19:54;;;;;;;;;;;;;;;7.21;78.66;100974.10;1692843;83;20728;-81
2022/01/02 00:22:20;;;;;;;;;;;;;;;7.16;78.52;100971.81;1680529;83;20567;-81
2022/01/02 00:24:46;;;;;;;;;;;;;;;7.06;78.61;100974.30;1693760;83;21113;-80
2022/01/02 00:27:14;;;;;;;;;;;;;;;7.11;79.06;100977.41;1683069;83;20143;-76
2022/01/02 00:29:40;;;;;;;;;;;;;;;7.09;79.12;100975.87;1694147;83;20255;-76
2022/01/02 00:32:07;;;;;;;;;;;;;;;7.13;79.15;100979.92;1676734;83;20279;-80
2022/01/02 00:34:35;;;;;;;;;;;;;;;7.15;78.99;100976.24;1686485;83;20244;-80
2022/01/02 00:37:02;;;;;;;;;;;;;;;7.17;79.03;100975.64;1693402;83;21155;-76
2022/01/02 00:39:28;;;;;;;;;;;;;;;7.22;79.15;100973.16;1686841;83;20097;-77
2022/01/02 00:41:56;;;;;;;;;;;;;;;7.23;78.89;100974.84;1691578;83;20265;-76
2022/01/02 00:44:40;;;;;;;;;;;;;;;7.25;78.95;100972.94;1696731;83;20199;-78
2022/01/02 00:47:21;;;;;;;;;;;;;;;7.24;78.74;100969.94;1684739;83;20301;-77
2022/01/02 00:50:15;;;;;;;;;;;;;;;7.21;78.86;100960.97;1699251;83;21116;-78
2022/01/02 00:52:47;;;;;;;;;;;;;;;7.24;78.82;100955.48;1694710;83;20216;-76
2022/01/02 00:55:15;;;;;;;;;;;;;;;7.12;79.09;100954.15;1660041;83;20141;-76
2022/01/02 00:57:42;;;;;;;;;;;;;;;7.10;79.28;100959.14;1679404;83;20235;-76
2022/01/02 01:00:10;;;;;;;;;;;;;;;7.08;79.24;100953.17;1693229;83;20263;-77
2022/01/02 01:02:54;;;;;;;;;;;;;;;7.14;79.44;100953.55;1688414;83;21082;-77
2022/01/02 01:05:30;;;;;;;;;;;;;;;7.13;79.32;100960.23;1646155;85;20154;-78
2022/01/02 01:08:01;;;;;;;;;;;;;;;6.91;79.72;100954.41;1659633;85;20336;-79
2022/01/02 01:10:31;;;;;;;;;;;;;;;6.74;80.59;100948.63;1657204;85;20809;-80
2022/01/02 01:13:00;;;;;;;;;;;;;;;6.80;80.79;100949.46;1660545;85;20532;-78
2022/01/02 01:15:28;;;;;;;;;;;;;;;6.72;80.83;100936.55;1667398;84;21787;-77
2022/01/02 01:17:55;;;;;;;;;;;;;;;6.66;81.15;100935.20;1669247;84;20170;-81
2022/01/02 01:20:21;;;;;;;;;;;;;;;6.66;81.30;100919.45;1668067;85;20116;-79
2022/01/02 01:22:46;;;;;;;;;;;;;;;6.64;81.58;100925.30;1666694;85;20108;-78
2022/01/02 01:25:15;;;;;;;;;;;;;;;6.73;81.56;100924.63;1664614;85;20273;-76
2022/01/02 01:27:40;;;;;;;;;;;;;;;6.72;81.79;100926.05;1661319;85;20194;-77
2022/01/02 01:30:07;;;;;;;;;;;;;;;6.47;82.45;100939.15;1663233;85;21017;-80
2022/01/02 01:32:32;;;;;;;;;;;;;;;6.66;82.06;100931.27;1671844;84;20144;-77
2022/01/02 01:34:58;;;;;;;;;;;;;;;6.69;81.87;100929.73;1669680;84;20202;-77
2022/01/02 01:37:23;;;;;;;;;;;;;;;6.61;82.22;100921.58;1662596;85;20173;-76
2022/01/02 01:39:49;;;;;;;;;;;;;;;6.62;82.45;100921.95;1665515;85;21177;-79
2022/01/02 01:42:14;;;;;;;;;;;;;;;6.68;82.52;100920.66;1662382;85;20224;-76
2022/01/02 01:45:02;;;;;;;;;;;;;;;6.63;82.51;100923.61;1660308;85;20510;-78
2022/01/02 01:47:07;;;;;;;;;;;;;;;6.40;83.49;100920.88;1662576;85;20194;-76
2022/01/02 01:49:33;;;;;;;;;;;;;;;6.38;84.07;100899.62;1655386;85;20235;-77
2022/01/02 01:51:59;;;;;;;;;;;;;;;6.56;83.62;100886.97;1665868;85;21176;-82
2022/01/02 01:54:24;;;;;;;;;;;;;;;6.56;83.63;100883.87;1670620;85;20315;-76
2022/01/02 01:56:53;;;;;;;;;;;;;;;6.64;83.72;100887.24;1670310;85;20143;-78
2022/01/02 01:59:19;;;;;;;;;;;;;;;6.69;83.70;100887.73;1661150;85;20244;-78
2022/01/02 02:01:45;;;;;;;;;;;;;;;6.68;83.56;100890.02;1670900;85;20277;-78
2022/01/02 02:04:11;;;;;;;;;;;;;;;6.72;83.54;100879.63;1675983;83;21008;-77
2022/01/02 02:06:37;;;;;;;;;;;;;;;6.77;83.58;100867.00;1686506;83;20483;-80
2022/01/02 02:09:04;;;;;;;;;;;;;;;6.78;83.76;100873.94;1686091;83;20986;-79
2022/01/02 02:11:29;;;;;;;;;;;;;;;6.76;83.64;100868.45;1688076;83;21178;-77
2022/01/02 02:13:55;;;;;;;;;;;;;;;6.75;83.90;100863.66;1677322;83;20139;-77
2022/01/02 02:16:21;;;;;;;;;;;;;;;6.74;83.97;100869.88;1692145;83;21974;-76
2022/01/02 02:18:47;;;;;;;;;;;;;;;6.74;83.97;100859.38;1690725;83;20129;-77
2022/01/02 02:21:13;;;;;;;;;;;;;;;6.73;83.93;100860.32;1680937;83;20473;-78
2022/01/02 02:23:38;;;;;;;;;;;;;;;6.81;83.83;100857.95;1685177;83;20164;-80
2022/01/02 02:26:04;;;;;;;;;;;;;;;6.82;83.64;100845.66;1685044;83;20179;-77
2022/01/02 02:28:29;;;;;;;;;;;;;;;6.76;83.71;100836.47;1684004;83;21786;-80
2022/01/02 02:30:55;;;;;;;;;;;;;;;6.85;83.92;100841.97;1698658;83;20338;-75
2022/01/02 02:33:21;;;;;;;;;;;;;;;6.90;83.75;100841.14;1685648;83;20162;-75
2022/01/02 02:35:47;;;;;;;;;;;;;;;6.85;84.04;100835.41;1689499;83;20255;-78
2022/01/02 02:38:15;;;;;;;;;;;;;;;6.83;84.05;100831.59;1680698;83;20216;-81
2022/01/02 02:40:41;;;;;;;;;;;;;;;6.83;84.26;100824.54;1686261;83;21155;-77
2022/01/02 02:43:25;;;;;;;;;;;;;;;6.92;84.34;100824.82;1691883;83;20285;-77
2022/01/02 02:51:09;;;;;;;;;;;;;;;6.99;84.21;100823.37;1681912;83;20176;-77
2022/01/02 02:53:38;;;;;;;;;;;;;;;6.94;84.15;100830.78;1689119;83;22096;-78
2022/01/02 02:56:14;;;;;;;;;;;;;;;7.01;84.22;100826.27;1681761;83;20218;-78
2022/01/02 03:01:00;;;;;;;;;;;;;;;7.01;84.33;100818.88;1683753;83;20141;-78
2022/01/02 03:03:26;;;;;;;;;;;;;;;6.98;84.25;100813.86;1680708;83;20432;-80
2022/01/02 03:05:51;;;;;;;;;;;;;;;7.04;84.39;100815.16;1656603;86;21044;-80
2022/01/02 03:08:17;;;;;;;;;;;;;;;7.07;84.17;100810.53;1656261;86;20297;-82
2022/01/02 03:10:42;;;;;;;;;;;;;;;7.10;84.15;100811.61;1656977;86;20214;-76
2022/01/02 03:13:08;;;;;;;;;;;;;;;7.09;84.23;100800.73;1655515;86;20166;-78
2022/01/02 03:15:34;;;;;;;;;;;;;;;7.12;84.17;100800.50;1655734;86;20491;-82
2022/01/02 03:17:59;;;;;;;;;;;;;;;7.12;84.24;100803.61;1656870;86;21092;-77
2022/01/02 03:20:25;;;;;;;;;;;;;;;7.13;84.35;100806.13;1656297;86;20279;-79
2022/01/02 03:22:50;;;;;;;;;;;;;;;7.12;84.47;100811.49;1656894;85;20163;-81
2022/01/02 03:25:17;;;;;;;;;;;;;;;7.10;84.71;100810.30;1657062;86;20138;-80
2022/01/02 03:27:43;;;;;;;;;;;;;;;7.16;84.67;100798.01;1656028;86;20304;-81
2022/01/02 03:30:10;;;;;;;;;;;;;;;7.13;84.89;100788.19;1654430;85;21066;-77
2022/01/02 03:32:35;;;;;;;;;;;;;;;7.07;85.25;100776.39;1655869;86;20120;-79
2022/01/02 03:35:01;;;;;;;;;;;;;;;7.08;85.55;100774.09;1656557;86;20491;-78
2022/01/02 03:37:28;;;;;;;;;;;;;;;7.02;86.12;100766.69;1657418;86;20191;-82
2022/01/02 03:39:55;;;;;;;;;;;;;;;7.00;86.48;100770.75;1656161;86;20280;-80
2022/01/02 03:42:21;;;;;;;;;;;;;;;6.91;87.10;100766.69;1656575;86;21142;-81
2022/01/02 03:44:46;;;;;;;;;;;;;;;6.99;87.36;100765.61;1656557;86;20221;-75
2022/01/02 03:47:12;;;;;;;;;;;;;;;6.96;87.42;100760.59;1657407;85;20527;-81
2022/01/02 03:49:38;;;;;;;;;;;;;;;6.89;87.92;100757.61;1655574;86;20193;-82
2022/01/02 03:52:03;;;;;;;;;;;;;;;6.97;87.95;100747.35;1653289;85;20149;-78
2022/01/02 03:54:29;;;;;;;;;;;;;;;6.98;88.17;100741.16;1655083;86;21092;-75
2022/01/02 03:56:55;;;;;;;;;;;;;;;7.04;88.23;100731.13;1654661;86;20586;-76
2022/01/02 03:59:20;;;;;;;;;;;;;;;7.07;88.21;100731.74;1654262;85;20184;-80
2022/01/02 04:01:46;;;;;;;;;;;;;;;6.99;88.46;100728.85;1657695;85;20531;-76
2022/01/02 04:04:11;;;;;;;;;;;;;;;7.07;88.42;100728.27;1663537;83;20179;-76
2022/01/02 04:06:37;;;;;;;;;;;;;;;7.10;88.38;100732.81;1689208;83;21179;-77
2022/01/02 04:09:03;;;;;;;;;;;;;;;7.14;88.12;100734.23;1682375;83;20566;-79
2022/01/02 04:11:28;;;;;;;;;;;;;;;7.16;87.90;100723.15;1676323;83;20210;-76
2022/01/02 04:13:54;;;;;;;;;;;;;;;7.13;87.85;100712.88;1682234;83;20498;-81
2022/01/02 04:16:19;;;;;;;;;;;;;;;7.22;87.75;100701.28;1677583;83;20188;-76
2022/01/02 04:18:45;;;;;;;;;;;;;;;7.25;87.52;100701.05;1686392;83;21177;-77
2022/01/02 04:21:11;;;;;;;;;;;;;;;7.25;87.33;100697.93;1688753;83;20159;-79
2022/01/02 04:23:38;;;;;;;;;;;;;;;7.22;87.27;100691.60;1673776;83;20464;-76
2022/01/02 04:26:04;;;;;;;;;;;;;;;7.18;87.44;100688.39;1688282;83;20227;-79
2022/01/02 04:28:30;;;;;;;;;;;;;;;6.93;88.27;100693.42;1691597;83;20168;-79
2022/01/02 04:30:56;;;;;;;;;;;;;;;6.82;88.69;100683.75;1686944;83;21199;-77
2022/01/02 04:33:21;;;;;;;;;;;;;;;6.87;89.03;100681.23;1696607;83;20164;-76
2022/01/02 04:35:47;;;;;;;;;;;;;;;6.85;89.11;100673.96;1702172;83;20148;-75
2022/01/02 04:38:14;;;;;;;;;;;;;;;6.84;89.20;100660.01;1687133;83;21066;-80
2022/01/02 04:40:39;;;;;;;;;;;;;;;6.83;89.29;100651.27;1680368;83;20133;-76
2022/01/02 04:43:05;;;;;;;;;;;;;;;6.86;89.47;100637.58;1685735;83;21281;-75
2022/01/02 04:45:31;;;;;;;;;;;;;;;7.02;88.54;100631.45;1689692;83;20450;-78
2022/01/02 04:47:56;;;;;;;;;;;;;;;7.00;88.34;100636.00;1693974;83;20203;-80
2022/01/02 04:50:22;;;;;;;;;;;;;;;7.06;88.41;100625.02;1679917;83;20184;-76
2022/01/02 04:52:48;;;;;;;;;;;;;;;6.96;88.59;100608.31;1683132;83;20123;-76
2022/01/02 04:55:13;;;;;;;;;;;;;;;6.92;88.78;100596.41;1685025;83;21319;-77
2022/01/02 04:57:39;;;;;;;;;;;;;;;6.93;88.99;100583.61;1682582;83;20462;-78
2022/01/02 05:00:06;;;;;;;;;;;;;;;6.93;89.12;100584.47;1688506;83;20220;-76
2022/01/02 05:02:32;;;;;;;;;;;;;;;6.99;88.83;100583.13;1683301;83;20181;-76
2022/01/02 05:04:57;;;;;;;;;;;;;;;7.04;88.94;100580.13;1687325;83;20226;-78
2022/01/02 05:07:23;;;;;;;;;;;;;;;6.90;89.11;100578.14;1696743;83;21094;-78
2022/01/02 05:09:48;;;;;;;;;;;;;;;6.97;89.35;100565.36;1691007;83;20183;-76
2022/01/02 05:12:14;;;;;;;;;;;;;;;6.98;89.29;100553.91;1695599;83;20201;-81
2022/01/02 05:14:40;;;;;;;;;;;;;;;6.89;89.48;100567.28;1681454;83;20388;-76
2022/01/02 05:17:05;;;;;;;;;;;;;;;6.92;89.75;100568.83;1683210;83;21237;-79
2022/01/02 05:19:31;;;;;;;;;;;;;;;6.92;89.98;100562.27;1681938;83;21231;-76
2022/01/02 05:21:57;;;;;;;;;;;;;;;6.95;90.08;100559.40;1690814;83;20295;-77
2022/01/02 05:24:23;;;;;;;;;;;;;;;6.96;90.27;100566.30;1705348;83;20156;-75
2022/01/02 05:26:48;;;;;;;;;;;;;;;6.74;91.40;100568.03;1702407;83;20160;-82
2022/01/02 05:29:15;;;;;;;;;;;;;;;6.71;91.77;100563.02;1689193;83;20422;-79
2022/01/02 05:31:41;;;;;;;;;;;;;;;6.68;92.40;100550.14;1704524;83;21118;-76
2022/01/02 05:34:07;;;;;;;;;;;;;;;6.63;93.01;100548.34;1694354;83;20282;-77
2022/01/02 05:36:32;;;;;;;;;;;;;;;6.60;93.51;100553.83;1690090;83;20191;-77
2022/01/02 05:38:58;;;;;;;;;;;;;;;6.64;93.83;100539.03;1698717;83;20163;-77
2022/01/02 05:41:26;;;;;;;;;;;;;;;6.68;93.89;100537.02;1699433;83;20159;-77
2022/01/02 05:43:51;;;;;;;;;;;;;;;6.73;93.90;100542.73;1696769;83;20509;-77
2022/01/02 05:46:17;;;;;;;;;;;;;;;6.83;93.52;100541.02;1698192;83;20164;-77
2022/01/02 05:48:42;;;;;;;;;;;;;;;6.92;93.64;100538.64;1696811;83;20156;-79
2022/01/02 05:51:08;;;;;;;;;;;;;;;6.80;93.68;100539.95;1697116;83;21031;-75
2022/01/02 05:53:33;;;;;;;;;;;;;;;6.68;94.74;100533.08;1702759;83;20144;-76
2022/01/02 05:55:59;;;;;;;;;;;;;;;6.71;95.02;100528.91;1703193;83;22023;-75
2022/01/02 05:58:24;;;;;;;;;;;;;;;6.69;95.07;100521.61;1698117;83;20132;-75
2022/01/02 06:00:50;;;;;;;;;;;;;;;6.69;95.24;100515.05;1691902;83;20138;-77
2022/01/02 06:03:16;;;;;;;;;;;;;;;6.72;95.28;100506.11;1690534;83;20234;-76
2022/01/02 06:05:41;;;;;;;;;;;;;;;6.96;94.36;100494.09;1683779;83;20204;-78
2022/01/02 06:08:08;;;;;;;;;;;;;;;6.96;94.09;100488.84;1685377;83;21189;-77
2022/01/02 06:10:35;;;;;;;;;;;;;;;7.07;93.86;100485.34;1688253;83;20153;-76
2022/01/02 06:13:00;;;;;;;;;;;;;;;7.08;93.94;100477.34;1692467;83;20176;-76
2022/01/02 06:15:26;;;;;;;;;;;;;;;7.13;93.82;100471.72;1684427;83;20144;-80
2022/01/02 06:17:51;;;;;;;;;;;;;;;6.98;94.88;100473.33;1689946;83;20470;-78
2022/01/02 06:20:20;;;;;;;;;;;;;;;6.99;95.18;100471.08;1694499;83;21313;-83
2022/01/02 06:22:46;;;;;;;;;;;;;;;6.88;96.05;100467.64;1693558;83;20162;-79
2022/01/02 06:25:11;;;;;;;;;;;;;;;6.94;96.09;100464.03;1678383;83;20188;-76
2022/01/02 06:27:37;;;;;;;;;;;;;;;6.90;97.04;100465.25;1695039;83;20155;-82
2022/01/02 06:30:03;;;;;;;;;;;;;;;6.79;97.55;100463.50;1690765;83;20440;-79
2022/01/02 06:32:29;;;;;;;;;;;;;;;6.76;98.00;100457.19;1685347;83;22033;-76
2022/01/02 06:34:55;;;;;;;;;;;;;;;6.85;98.09;100451.65;1693994;83;20262;-77
2022/01/02 06:37:20;;;;;;;;;;;;;;;6.86;98.16;100459.06;1686208;83;20593;-79
2022/01/02 06:39:46;;;;;;;;;;;;;;;6.90;98.08;100466.57;1692387;83;20129;-76
2022/01/02 06:42:11;;;;;;;;;;;;;;;6.89;98.16;100458.33;1689804;83;20133;-78
2022/01/02 06:44:40;;;;;;;;;;;;;;;6.92;98.18;100454.63;1687826;83;21063;-81
2022/01/02 06:47:06;;;;;;;;;;;;;;;6.96;98.21;100438.96;1681288;83;20232;-78
2022/01/02 06:49:32;;;;;;;;;;;;;;;6.94;98.53;100436.95;1697750;83;20124;-77
2022/01/02 06:51:57;;;;;;;;;;;;;;;6.87;99.32;100426.13;1685994;83;20168;-78
2022/01/02 06:54:23;;;;;;;;;;;;;;;6.92;99.27;100421.81;1692107;83;20160;-75
2022/01/02 06:56:48;;;;;;;;;;;;;;;6.96;99.43;100419.27;1690251;83;21113;-79
2022/01/02 06:59:14;;;;;;;;;;;;;;;6.97;99.49;100426.20;1689296;83;20509;-80
2022/01/02 07:01:40;;;;;;;;;;;;;;;7.09;99.57;100433.06;1691952;83;20207;-76
2022/01/02 07:04:05;;;;;;;;;;;;;;;7.25;98.41;100416.86;1683801;83;20160;-77
2022/01/02 07:06:31;;;;;;;;;;;;;;;7.26;98.65;100415.09;1674616;83;21254;-76
2022/01/02 07:08:57;;;;;;;;;;;;;;;7.29;98.55;100409.58;1684460;85;21176;-78
2022/01/02 07:11:22;;;;;;;;;;;;;;;7.24;99.04;100405.17;1673579;83;20163;-77
2022/01/02 07:13:48;;;;;;;;;;;;;;;7.30;99.00;100405.97;1675100;85;20212;-76
2022/01/02 07:16:14;;;;;;;;;;;;;;;7.30;99.11;100420.42;1684706;83;20823;-79
2022/01/02 07:18:39;;;;;;;;;;;;;;;7.23;99.54;100406.15;1673354;85;20168;-78
2022/01/02 07:21:05;;;;;;;;;;;;;;;7.24;99.64;100399.45;1670879;85;21108;-76
2022/01/02 07:23:30;;;;;;;;;;;;;;;7.25;99.76;100395.03;1678312;85;20164;-76
2022/01/02 07:25:56;;;;;;;;;;;;;;;7.19;100.00;100394.59;1679104;85;20152;-83
2022/01/02 07:28:22;;;;;;;;;;;;;;;7.30;100.00;100398.09;1675732;85;20144;-77
2022/01/02 07:30:48;;;;;;;;;;;;;;;7.26;100.00;100400.15;1673683;85;20287;-78
2022/01/02 07:33:13;;;;;;;;;;;;;;;7.17;100.00;100391.23;1672926;85;21260;-79
2022/01/02 07:35:39;;;;;;;;;;;;;;;7.22;100.00;100388.72;1682653;85;20765;-76
2022/01/02 07:38:05;;;;;;;;;;;;;;;7.23;100.00;100392.53;1675064;85;20144;-75
2022/01/02 07:40:30;;;;;;;;;;;;;;;7.24;100.00;100373.65;1675921;84;21422;-77
2022/01/02 07:42:56;;;;;;;;;;;;;;;7.34;100.00;100379.31;1669128;85;20504;-81
2022/01/02 07:45:22;;;;;;;;;;;;;;;7.39;100.00;100368.41;1672388;85;21135;-81
2022/01/02 07:47:47;;;;;;;;;;;;;;;7.43;100.00;100363.27;1675218;85;20151;-77
2022/01/02 07:50:13;;;;;;;;;;;;;;;7.42;100.00;100352.39;1677199;85;20212;-79
2022/01/02 07:52:39;;;;;;;;;;;;;;;7.46;100.00;100341.98;1670079;85;21747;-77
2022/01/02 07:55:05;;;;;;;;;;;;;;;7.50;100.00;100322.37;1678102;85;20175;-76
2022/01/02 07:57:30;;;;;;;;;;;;;;;7.47;100.00;100322.64;1672779;85;22285;-76
2022/01/02 07:59:56;;;;;;;;;;;;;;;7.55;100.00;100322.80;1678965;85;20168;-84
2022/01/02 08:02:21;;;;;;;;;;;;;;;7.55;100.00;100321.48;1676031;85;20176;-77
2022/01/02 08:04:47;;;;;;;;;;;;;;;7.58;100.00;100316.92;1674857;85;20141;-76
2022/01/02 08:07:13;;;;;;;;;;;;;;;7.58;100.00;100302.46;1696679;83;21192;-76
2022/01/02 08:09:38;;;;;;;;;;;;;;;7.57;100.00;100296.84;1686567;83;21289;-78
2022/01/02 08:12:04;;;;;;;;;;;;;;;7.67;100.00;100294.60;1692250;83;20472;-79
2022/01/02 08:14:31;;;;;;;;;;;;;;;7.74;100.00;100285.72;1691801;83;20255;-79
2022/01/02 08:16:56;;;;;;;;;;;;;;;7.70;100.00;100281.69;1694456;83;20156;-76
2022/01/02 08:19:22;;;;;;;;;;;;;;;7.63;100.00;100289.75;1688794;83;20168;-77
2022/01/02 08:21:48;;;;;;;;;;;;;;;7.68;100.00;100281.82;1686481;83;21111;-76
2022/01/02 08:24:13;;;;;;;;;;;;;;;7.68;100.00;100283.13;1692594;83;20196;-78
2022/01/02 08:26:39;;;;;;;;;;;;;;;7.76;100.00;100270.63;1690575;83;21370;-77
2022/01/02 08:29:05;;;;;;;;;;;;;;;7.74;100.00;100275.20;1689250;83;20241;-74
2022/01/02 08:31:30;;;;;;;;;;;;;;;7.67;100.00;100280.14;1688042;83;20168;-81
2022/01/02 08:33:56;;;;;;;;;;;;;;;7.72;100.00;100275.80;1684451;83;21119;-76
2022/01/02 08:36:22;;;;;;;;;;;;;;;7.75;100.00;100279.47;1684166;83;20181;-78
2022/01/02 08:38:48;;;;;;;;;;;;;;;7.71;100.00;100278.10;1681291;83;20302;-77
2022/01/02 08:41:14;;;;;;;;;;;;;;;7.81;100.00;100275.00;1685949;83;20833;-84
2022/01/02 08:43:40;;;;;;;;;;;;;;;7.79;100.00;100276.94;1696108;83;20167;-76
2022/01/02 08:46:06;;;;;;;;;;;;;;;7.78;100.00;100266.06;1695763;83;21195;-76
2022/01/02 08:48:31;;;;;;;;;;;;;;;7.85;100.00;100255.86;1683818;83;20146;-79
2022/01/02 08:50:57;;;;;;;;;;;;;;;7.80;100.00;100253.64;1681563;83;20148;-76
2022/01/02 08:53:23;;;;;;;;;;;;;;;7.78;100.00;100260.80;1680726;83;20163;-78
2022/01/02 08:55:48;;;;;;;;;;;;;;;7.82;100.00;100256.95;1691308;83;20131;-77
2022/01/02 08:58:14;;;;;;;;;;;;;;;7.85;100.00;100250.60;1688244;83;21149;-76
2022/01/02 09:00:39;;;;;;;;;;;;;;;7.83;100.00;100250.73;1696518;83;20152;-77
2022/01/02 09:03:06;;;;;;;;;;;;;;;7.96;100.00;100258.84;1690053;83;20238;-83
2022/01/02 09:05:33;;;;;;;;;;;;;;;8.07;100.00;100258.22;1706015;83;20224;-78
2022/01/02 09:07:58;;;;;;;;;;;;;;;8.12;100.00;100256.50;1690141;83;20162;-79
2022/01/02 09:10:24;;;;;;;;;;;;;;;8.21;100.00;100249.09;1689274;83;21780;-77
2022/01/02 09:12:50;;;;;;;;;;;;;;;8.19;100.00;100242.33;1687877;83;20117;-78
2022/01/02 09:15:15;;;;;;;;;;;;;;;8.30;100.00;100249.22;1690876;83;20721;-77
2022/01/02 09:17:41;;;;;;;;;;;;;;;8.25;100.00;100248.35;1691927;83;20168;-78
2022/01/02 09:20:07;;;;;;;;;;;;;;;8.23;100.00;100230.08;1682449;83;20251;-78
2022/01/02 09:22:33;;;;;;;;;;;;;;;8.42;100.00;100217.84;1686477;83;22451;-82
2022/01/02 09:24:58;;;;;;;;;;;;;;;8.29;100.00;100218.14;1672626;83;20170;-77
2022/01/02 09:27:24;;;;;;;;;;;;;;;8.42;100.00;100204.69;1686597;83;20349;-79
2022/01/02 09:29:49;;;;;;;;;;;;;;;8.38;100.00;100181.78;1688155;83;20219;-77
2022/01/02 09:32:15;;;;;;;;;;;;;;;8.41;100.00;100185.94;1697646;83;20470;-76
2022/01/02 09:34:41;;;;;;;;;;;;;;;8.41;100.00;100184.62;1696037;83;21255;-77
2022/01/02 09:37:07;;;;;;;;;;;;;;;8.49;100.00;100184.77;1693697;83;20921;-76
2022/01/02 09:39:33;;;;;;;;;;;;;;;8.55;100.00;100182.89;1690458;83;20482;-76
2022/01/02 09:41:59;;;;;;;;;;;;;;;8.66;100.00;100170.55;1692585;83;20239;-77
2022/01/02 09:44:24;;;;;;;;;;;;;;;8.74;100.00;100168.02;1689376;83;20284;-77
2022/01/02 09:46:51;;;;;;;;;;;;;;;8.68;100.00;100151.48;1688872;83;21019;-78
2022/01/02 09:49:17;;;;;;;;;;;;;;;8.80;100.00;100149.01;1694590;83;20518;-76
2022/01/02 09:51:42;;;;;;;;;;;;;;;8.83;100.00;100140.82;1692692;83;20116;-81
2022/01/02 09:54:09;;;;;;;;;;;;;;;8.88;100.00;100129.85;1685705;83;20172;-75
2022/01/02 09:56:34;;;;;;;;;;;;;;;8.90;100.00;100128.74;1687464;83;20212;-76
2022/01/02 09:59:02;;;;;;;;;;;;;;;8.83;100.00;100127.66;1695800;83;21026;-76
2022/01/02 10:01:29;;;;;;;;;;;;;;;8.89;100.00;100103.38;1687424;83;20648;-76
2022/01/02 10:03:55;;;;;;;;;;;;;;;8.98;100.00;100102.49;1690373;83;20147;-78
2022/01/02 10:06:23;;;;;;;;;;;;;;;8.98;100.00;100103.81;1697887;83;20200;-79
2022/01/02 10:08:51;;;;;;;;;;;;;;;8.94;100.00;100087.95;1676570;83;20153;-79
2022/01/02 10:11:21;;;;;;;;;;;;;;;9.07;100.00;100070.97;1681623;83;21195;-76
2022/01/02 10:14:01;;;;;;;;;;;;;;;9.03;100.00;100066.99;1698601;83;20232;-79
2022/01/02 10:16:32;;;;;;;;;;;;;;;9.10;100.00;100053.55;1697754;83;20136;-77
2022/01/02 10:19:00;;;;;;;;;;;;;;;9.12;100.00;100050.27;1681362;83;20190;-75
2022/01/02 10:21:34;;;;;;;;;;;;;;;9.21;100.00;100038.83;1680993;83;20182;-76
2022/01/02 10:24:18;;;;;;;;;;;;;;;9.25;100.00;100027.02;1686319;83;21092;-77
2022/01/02 10:27:01;;;;;;;;;;;;;;;9.29;100.00;100017.85;1679703;83;20152;-79
2022/01/02 10:29:30;;;;;;;;;;;;;;;9.41;100.00;99992.08;1679501;83;20180;-80
2022/01/02 10:31:56;;;;;;;;;;;;;;;9.42;100.00;99978.42;1686880;83;20181;-80
2022/01/02 10:34:25;;;;;;;;;;;;;;;9.46;100.00;99979.75;1689479;83;20180;-83
2022/01/02 10:36:52;;;;;;;;;;;;;;;9.47;100.00;99976.15;1643204;83;41116;-75
2022/01/02 10:39:20;;;;;;;;;;;;;;;9.50;100.00;99969.25;1684799;83;20185;-82
2022/01/02 10:41:50;;;;;;;;;;;;;;;9.56;100.00;99981.00;1686240;83;20220;-76
2022/01/02 10:44:36;;;;;;;;;;;;;;;9.60;100.00;99976.59;1684653;83;20190;-77
2022/01/02 10:47:14;;;;;;;;;;;;;;;9.70;100.00;99977.30;1691147;83;20224;-78
2022/01/02 10:50:08;;;;;;;;;;;;;;;9.53;100.00;99970.27;1671157;83;20872;-77
2022/01/02 10:52:45;;;;;;;;;;;;;;;9.53;100.00;99949.17;1693487;83;20153;-79
2022/01/02 10:55:26;;;;;;;;;;;;;;;9.53;100.00;99945.22;1695542;83;20655;-81
2022/01/02 10:57:55;;;;;;;;;;;;;;;9.48;100.00;99952.77;1696125;83;20220;-79
2022/01/02 11:00:24;;;;;;;;;;;;;;;9.64;100.00;99951.55;1693289;83;20123;-76
2022/01/02 11:02:50;;;;;;;;;;;;;;;9.51;100.00;99939.29;1687194;83;21170;-77
2022/01/02 11:05:17;;;;;;;;;;;;;;;9.51;100.00;99937.97;1679362;83;20127;-80
2022/01/02 11:07:49;;;;;;;;;;;;;;;9.60;100.00;99930.45;1689928;83;20521;-76
2022/01/02 11:10:19;;;;;;;;;;;;;;;9.65;100.00;99922.89;1694066;83;20196;-77
2022/01/02 11:12:48;;;;;;;;;;;;;;;9.63;100.00;99920.06;1698403;83;20534;-80
2022/01/02 11:15:17;;;;;;;;;;;;;;;9.72;100.00;99913.05;1685397;83;21085;-76
2022/01/02 11:17:42;;;;;;;;;;;;;;;9.75;100.00;99903.50;1688808;83;20204;-77
2022/01/02 11:20:11;;;;;;;;;;;;;;;9.75;100.00;99898.23;1693172;83;20790;-77
2022/01/02 11:23:03;;;;;;;;;;;;;;;9.81;100.00;99888.37;1693578;83;20169;-77
2022/01/02 11:25:35;;;;;;;;;;;;;;;9.86;100.00;99884.25;1689244;83;20175;-80
2022/01/02 11:28:05;;;;;;;;;;;;;;;9.77;100.00;99880.42;1691498;83;21279;-77
2022/01/02 11:30:35;;;;;;;;;;;;;;;9.79;100.00;99882.41;1682953;83;20181;-78
2022/01/02 11:33:06;;;;;;;;;;;;;;;9.80;100.00;99873.02;1693124;83;20494;-80
2022/01/02 11:35:32;;;;;;;;;;;;;;;9.87;100.00;99873.23;1681892;83;20180;-77
2022/01/02 11:38:02;;;;;;;;;;;;;;;9.89;100.00;99858.88;1685432;83;20156;-77
2022/01/02 11:40:52;;;;;;;;;;;;;;;10.04;100.00;99851.20;1685804;83;20137;-79
2022/01/02 11:43:46;;;;;;;;;;;;;;;9.92;100.00;99839.28;1687385;83;20093;-78
2022/01/02 11:46:26;;;;;;;;;;;;;;;9.99;100.00;99845.58;1684376;83;20574;-76
2022/01/02 11:49:20;;;;;;;;;;;;;;;9.88;100.00;99836.15;1655723;83;20304;-77
2022/01/02 11:52:01;;;;;;;;;;;;;;;9.95;100.00;99844.23;1692235;83;20209;-76
2022/01/02 11:54:40;;;;;;;;;;;;;;;10.01;100.00;99832.23;1683220;83;21315;-75
2022/01/02 11:57:06;;;;;;;;;;;;;;;9.91;100.00;99828.39;1690772;83;20176;-75
2022/01/02 11:59:48;;;;;;;;;;;;;;;9.93;100.00;99833.03;1684165;83;20231;-76
2022/01/02 12:02:20;;;;;;;;;;;;;;;10.06;100.00;99833.39;1677968;83;20254;-79
2022/01/02 12:05:02;;;;;;;;;;;;;;;10.13;100.00;99824.83;1677868;83;20164;-78
2022/01/02 12:07:40;;;;;;;;;;;;;;;10.17;100.00;99820.89;1684265;83;21147;-78
2022/01/02 12:10:18;;;;;;;;;;;;;;;10.28;100.00;99823.21;1693410;83;20149;-76
2022/01/02 12:13:13;;;;;;;;;;;;;;;10.21;100.00;99826.19;1697932;83;20145;-77
2022/01/02 12:15:41;;;;;;;;;;;;;;;10.05;100.00;99817.72;1686823;83;20151;-75
2022/01/02 12:18:24;;;;;;;;;;;;;;;10.31;100.00;99801.78;1689272;83;20220;-77
2022/01/02 12:21:00;;;;;;;;;;;;;;;10.32;100.00;99795.52;1662500;83;21009;-76
2022/01/02 12:23:44;;;;;;;;;;;;;;;10.38;100.00;99789.62;1686240;83;20152;-74
2022/01/02 12:26:11;;;;;;;;;;;;;;;10.45;100.00;99783.69;1690197;83;20193;-74
2022/01/02 12:28:46;;;;;;;;;;;;;;;10.38;100.00;99768.50;1696547;82;20971;-73
2022/01/02 12:31:16;;;;;;;;;;;;;;;10.54;100.00;99761.58;1690272;83;20157;-74
2022/01/02 12:33:42;;;;;;;;;;;;;;;10.40;100.00;99748.03;1698402;83;21271;-75
2022/01/02 12:36:10;;;;;;;;;;;;;;;10.56;100.00;99754.30;1676065;83;20204;-73
2022/01/02 12:38:53;;;;;;;;;;;;;;;10.56;100.00;99746.38;1693443;83;20215;-74
2022/01/02 12:41:20;;;;;;;;;;;;;;;10.55;100.00;99747.36;1696300;83;20356;-74
2022/01/02 12:43:58;;;;;;;;;;;;;;;10.61;100.00;99741.42;1696342;83;20214;-77
2022/01/02 12:46:44;;;;;;;;;;;;;;;10.37;100.00;99742.27;1688818;82;21128;-76
2022/01/02 12:49:14;;;;;;;;;;;;;;;10.47;100.00;99734.17;1694726;83;20161;-74
2022/01/02 12:51:42;;;;;;;;;;;;;;;10.39;100.00;99731.89;1682764;83;20172;-75
2022/01/02 12:54:12;;;;;;;;;;;;;;;10.51;100.00;99731.55;1694488;83;20192;-77